createdAt,value
2022-10-02T00:00:20.355Z,4.20
2022-10-02T00:02:09.617Z,4.03
2022-10-02T00:03:43.311Z,4.35
2022-10-02T00:05:44.189Z,4.05
2022-10-02T00:07:18.432Z,3.67
2022-10-02T00:08:52.255Z,3.83
2022-10-02T00:10:44.971Z,4.22
2022-10-02T00:12:18.931Z,3.40
2022-10-02T00:13:54.476Z,3.67
2022-10-02T00:15:27.896Z,4.55
2022-10-02T00:17:01.016Z,4.20
2022-10-02T00:18:34.825Z,3.60
2022-10-02T00:20:13.289Z,4.53
2022-10-02T00:21:57.210Z,4.10
2022-10-02T00:23:40.923Z,4.57
2022-10-02T00:25:15.669Z,4.10
2022-10-02T00:26:59.275Z,4.47
2022-10-02T00:28:49.524Z,4.88
2022-10-02T00:30:21.488Z,3.22
2022-10-02T00:32:10.522Z,4.00
2022-10-02T00:33:50.322Z,4.65
2022-10-02T00:35:40.773Z,4.28
2022-10-02T00:37:35.365Z,4.57
2022-10-02T00:39:22.376Z,4.10
2022-10-02T00:41:12.310Z,3.88
2022-10-02T00:42:47.151Z,5.00
2022-10-02T00:44:18.928Z,4.28
2022-10-02T00:45:53.792Z,3.65
2022-10-02T00:47:43.737Z,4.10
2022-10-02T00:51:46.873Z,3.85
2022-10-02T00:53:53.429Z,4.80
2022-10-02T00:55:34.653Z,5.32
2022-10-02T00:57:13.559Z,4.20
2022-10-02T00:58:45.378Z,3.83
2022-10-02T01:00:20.782Z,4.82
2022-10-02T01:01:55.184Z,3.75
2022-10-02T01:03:29.739Z,4.80
2022-10-02T01:05:03.133Z,4.95
2022-10-02T01:06:35.097Z,6.43
2022-10-02T01:08:07.704Z,5.78
2022-10-02T01:09:39.424Z,4.65
2022-10-02T01:11:11.411Z,4.20
2022-10-02T01:12:43.422Z,4.53
2022-10-02T01:14:18.101Z,4.70
2022-10-02T01:15:59.556Z,4.43
2022-10-02T01:17:33.331Z,5.70
2022-10-02T01:19:06.183Z,4.75
2022-10-02T01:20:42.608Z,5.75
2022-10-02T01:22:29.548Z,4.72
2022-10-02T01:24:09.619Z,4.57
2022-10-02T01:25:43.782Z,3.92
2022-10-02T01:27:15.717Z,4.63
2022-10-02T01:28:50.737Z,6.20
2022-10-02T01:30:22.710Z,4.35
2022-10-02T01:31:54.864Z,4.43
2022-10-02T01:33:26.906Z,5.82
2022-10-02T01:35:00.958Z,4.47
2022-10-02T01:36:35.685Z,4.43
2022-10-02T01:38:10.024Z,5.90
2022-10-02T01:39:41.911Z,5.32
2022-10-02T01:41:13.744Z,5.43
2022-10-02T01:42:45.932Z,4.75
2022-10-02T01:44:21.095Z,3.83
2022-10-02T01:46:01.379Z,4.35
2022-10-02T01:47:59.552Z,5.15
2022-10-02T01:49:39.787Z,4.30
2022-10-02T01:51:42.089Z,4.45
2022-10-02T01:53:20.166Z,4.63
2022-10-02T01:55:01.650Z,6.03
2022-10-02T01:56:44.681Z,4.57
2022-10-02T01:58:24.948Z,5.03
2022-10-02T02:00:02.435Z,4.18
2022-10-02T02:01:57.196Z,5.25
2022-10-02T02:03:42.126Z,5.57
2022-10-02T02:05:14.066Z,5.50
2022-10-02T02:06:49.277Z,8.23
2022-10-02T02:08:37.263Z,5.43
2022-10-02T02:10:17.954Z,6.55
2022-10-02T02:12:19.253Z,5.03
2022-10-02T02:13:58.776Z,4.47
2022-10-02T02:15:37.145Z,5.10
2022-10-02T02:17:14.188Z,4.97
2022-10-02T02:18:52.192Z,4.75
2022-10-02T02:20:43.222Z,6.78
2022-10-02T02:22:21.513Z,5.97
2022-10-02T02:23:58.058Z,4.20
2022-10-02T02:25:31.958Z,7.20
2022-10-02T02:27:04.747Z,4.38
2022-10-02T02:28:41.512Z,6.22
2022-10-02T02:30:14.751Z,5.53
2022-10-02T02:31:50.255Z,5.15
2022-10-02T02:33:27.887Z,5.85
2022-10-02T02:35:05.266Z,4.88
2022-10-02T02:36:39.089Z,7.72
2022-10-02T02:38:19.534Z,4.90
2022-10-02T02:39:53.470Z,4.68
2022-10-02T02:41:27.808Z,5.88
2022-10-02T02:43:05.645Z,4.28
2022-10-02T02:44:56.986Z,5.07
2022-10-02T02:46:33.335Z,5.03
2022-10-02T02:48:09.063Z,5.45
2022-10-02T02:49:58.243Z,5.60
2022-10-02T02:51:32.423Z,5.70
2022-10-02T02:53:30.174Z,5.38
2022-10-02T02:55:07.487Z,4.97
2022-10-02T02:56:41.935Z,5.55
2022-10-02T02:58:35.248Z,4.93
2022-10-02T03:00:08.177Z,4.43
2022-10-02T03:03:11.672Z,4.65
2022-10-02T03:04:43.406Z,6.28
2022-10-02T03:06:21.418Z,6.20
2022-10-02T03:07:54.591Z,6.93
2022-10-02T03:09:27.928Z,5.05
2022-10-02T03:11:17.692Z,5.53
2022-10-02T03:13:00.897Z,5.80
2022-10-02T03:16:13.520Z,6.20
2022-10-02T03:17:45.364Z,6.60
2022-10-02T03:19:35.750Z,5.13
2022-10-02T03:21:10.313Z,5.82
2022-10-02T03:22:51.100Z,5.53
2022-10-02T03:24:25.926Z,4.78
2022-10-02T03:26:02.884Z,6.13
2022-10-02T03:27:40.063Z,5.25
2022-10-02T03:29:19.392Z,5.20
2022-10-02T03:30:54.554Z,5.05
2022-10-02T03:32:33.482Z,5.28
2022-10-02T03:34:05.907Z,6.72
2022-10-02T03:35:38.288Z,5.82
2022-10-02T03:37:14.258Z,5.32
2022-10-02T03:38:56.907Z,4.30
2022-10-02T03:40:38.346Z,4.22
2022-10-02T03:42:13.552Z,3.90
2022-10-02T03:43:55.911Z,5.43
2022-10-02T03:45:51.323Z,5.03
2022-10-02T03:47:23.205Z,5.60
2022-10-02T03:48:56.730Z,5.07
2022-10-02T03:50:30.795Z,4.88
2022-10-02T03:52:05.983Z,4.85
2022-10-02T03:53:38.129Z,4.50
2022-10-02T03:55:21.523Z,4.30
2022-10-02T03:56:57.584Z,4.90
2022-10-02T03:58:29.881Z,4.88
2022-10-02T04:00:02.838Z,4.95
2022-10-02T04:01:46.856Z,5.43
2022-10-02T04:03:26.966Z,4.25
2022-10-02T04:05:19.609Z,5.03
2022-10-02T04:06:53.402Z,5.35
2022-10-02T04:08:28.721Z,5.10
2022-10-02T04:10:10.853Z,4.90
2022-10-02T04:11:48.712Z,5.53
2022-10-02T04:13:34.182Z,4.07
2022-10-02T04:15:21.230Z,4.10
2022-10-02T04:17:04.791Z,4.63
2022-10-02T04:18:41.066Z,4.03
2022-10-02T04:20:20.494Z,4.80
2022-10-02T04:21:59.502Z,4.15
2022-10-02T04:23:44.383Z,4.35
2022-10-02T04:25:20.668Z,4.88
2022-10-02T04:27:08.064Z,3.65
2022-10-02T04:28:42.042Z,4.60
2022-10-02T04:30:19.585Z,4.25
2022-10-02T04:32:00.761Z,5.10
2022-10-02T04:33:37.697Z,5.25
2022-10-02T04:35:20.015Z,4.07
2022-10-02T04:37:06.664Z,5.05
2022-10-02T04:38:58.549Z,4.55
2022-10-02T04:40:37.250Z,4.72
2022-10-02T04:42:29.884Z,5.32
2022-10-02T04:44:13.885Z,4.20
2022-10-02T04:46:02.132Z,4.80
2022-10-02T04:47:43.501Z,4.88
2022-10-02T04:49:27.026Z,5.55
2022-10-02T04:51:16.803Z,5.70
2022-10-02T04:53:14.564Z,6.22
2022-10-02T04:54:50.512Z,7.05
2022-10-02T04:56:30.969Z,6.30
2022-10-02T04:58:12.040Z,6.07
2022-10-02T04:59:55.566Z,6.95
2022-10-02T05:01:36.169Z,6.60
2022-10-02T05:03:19.990Z,6.15
2022-10-02T05:05:10.456Z,6.93
2022-10-02T05:06:48.656Z,7.13
2022-10-02T05:08:23.364Z,6.93
2022-10-02T05:09:55.186Z,7.35
2022-10-02T05:11:30.469Z,7.32
2022-10-02T05:13:04.797Z,7.20
2022-10-02T05:14:42.146Z,7.15
2022-10-02T05:16:33.009Z,7.72
2022-10-02T05:18:13.496Z,7.38
2022-10-02T05:19:59.980Z,7.32
2022-10-02T05:21:46.761Z,6.93
2022-10-02T05:23:31.125Z,7.70
2022-10-02T05:25:12.850Z,6.95
2022-10-02T05:26:50.540Z,7.85
2022-10-02T05:28:35.572Z,8.27
2022-10-02T05:30:07.406Z,8.48
2022-10-02T05:31:41.554Z,7.30
2022-10-02T05:34:05.146Z,7.07
2022-10-02T05:54:01.395Z,9.88
2022-10-02T05:55:47.068Z,9.88
2022-10-02T05:57:23.628Z,10.88
2022-10-02T05:59:05.771Z,12.75
2022-10-02T06:01:15.776Z,12.15
2022-10-02T06:02:50.229Z,12.02
2022-10-02T06:04:33.465Z,12.27
2022-10-02T06:07:38.444Z,11.57
2022-10-02T06:10:46.703Z,13.68
2022-10-02T06:12:48.057Z,12.65
2022-10-02T06:14:53.294Z,13.15
2022-10-02T06:16:41.917Z,13.88
2022-10-02T06:18:22.810Z,14.68
2022-10-02T06:20:15.601Z,12.80
2022-10-02T06:21:52.933Z,13.35
2022-10-02T06:23:27.206Z,14.55
2022-10-02T06:25:04.688Z,13.07
2022-10-02T06:26:40.265Z,14.77
2022-10-02T06:28:30.537Z,12.85
2022-10-02T06:30:15.088Z,15.27
2022-10-02T06:31:53.885Z,13.77
2022-10-02T06:33:40.536Z,13.93
2022-10-02T06:35:43.794Z,14.57
2022-10-02T06:37:24.283Z,14.77
2022-10-02T06:39:16.803Z,14.65
2022-10-02T06:41:02.256Z,14.20
2022-10-02T06:42:54.257Z,15.27
2022-10-02T06:45:42.870Z,14.93
2022-10-02T06:47:25.099Z,13.93
2022-10-02T06:49:02.316Z,14.77
2022-10-02T06:50:47.213Z,15.32
2022-10-02T06:52:37.155Z,15.75
2022-10-02T06:54:20.549Z,15.52
2022-10-02T06:56:03.026Z,15.00
2022-10-02T06:57:48.777Z,15.00
2022-10-02T06:59:38.018Z,14.57
2022-10-02T07:01:16.684Z,14.07
2022-10-02T07:03:23.098Z,14.57
2022-10-02T07:05:13.744Z,13.20
2022-10-02T07:06:51.116Z,13.20
2022-10-02T07:09:15.663Z,13.70
2022-10-02T07:11:25.458Z,13.27
2022-10-02T07:13:08.168Z,12.35
2022-10-02T07:15:01.635Z,12.73
2022-10-02T07:17:07.266Z,11.43
2022-10-02T07:18:52.081Z,12.00
2022-10-02T07:20:47.395Z,11.27
2022-10-02T07:22:56.010Z,12.43
2022-10-02T07:24:53.949Z,11.23
2022-10-02T07:26:30.825Z,11.23
2022-10-02T07:31:26.291Z,11.07
2022-10-02T07:34:15.053Z,12.68
2022-10-02T07:36:25.945Z,12.52
2022-10-02T07:38:23.743Z,13.00
2022-10-02T07:40:06.192Z,12.23
2022-10-02T07:41:58.486Z,11.77
2022-10-02T07:43:43.771Z,11.25
2022-10-02T07:45:29.263Z,11.73
2022-10-02T07:47:15.521Z,10.38
2022-10-02T07:48:49.693Z,10.57
2022-10-02T07:50:29.769Z,9.50
2022-10-02T07:52:05.313Z,9.88
2022-10-02T07:53:51.294Z,9.93
2022-10-02T07:55:24.059Z,9.68
2022-10-02T07:57:16.140Z,10.25
2022-10-02T07:59:16.358Z,9.60
2022-10-02T08:00:53.116Z,9.02
2022-10-02T08:02:53.227Z,10.05
2022-10-02T08:04:44.539Z,9.82
2022-10-02T08:06:19.768Z,10.10
2022-10-02T08:07:53.285Z,10.48
2022-10-02T08:09:42.852Z,9.27
2022-10-02T08:11:34.088Z,11.77
2022-10-02T08:13:08.131Z,10.80
2022-10-02T08:14:45.973Z,10.18
2022-10-02T08:16:22.911Z,10.25
2022-10-02T08:18:10.778Z,10.10
2022-10-02T08:20:06.591Z,10.38
2022-10-02T08:24:33.201Z,9.82
2022-10-02T08:26:57.776Z,10.65
2022-10-02T08:28:53.810Z,9.43
2022-10-02T08:33:01.153Z,9.38
2022-10-02T08:33:22.920Z,8.68
2022-10-02T08:39:56.275Z,9.25
2022-10-02T08:42:01.816Z,9.32
2022-10-02T08:44:04.510Z,9.95
2022-10-02T08:46:04.856Z,9.82
2022-10-02T08:47:58.656Z,9.93
2022-10-02T08:49:45.319Z,10.20
2022-10-02T08:51:31.045Z,10.35
2022-10-02T08:53:24.194Z,10.75
2022-10-02T08:55:06.525Z,10.50
2022-10-02T08:56:50.215Z,9.87
2022-10-02T08:58:44.804Z,11.00
2022-10-02T09:02:41.224Z,9.85
2022-10-02T09:05:29.702Z,10.82
2022-10-02T09:07:34.427Z,9.45
2022-10-02T09:09:31.303Z,9.45
2022-10-02T09:11:24.969Z,9.52
2022-10-02T09:14:02.502Z,9.82
2022-10-02T09:16:24.492Z,9.15
2022-10-02T09:18:27.934Z,8.02
2022-10-02T09:21:15.233Z,8.73
2022-10-02T09:22:43.052Z,8.68
2022-10-02T09:24:34.439Z,8.25
2022-10-02T09:26:40.810Z,9.93
2022-10-02T09:28:24.838Z,8.02
2022-10-02T09:30:11.432Z,9.80
2022-10-02T09:32:13.852Z,8.75
2022-10-02T09:33:54.796Z,7.63
2022-10-02T09:35:39.123Z,6.55
2022-10-02T09:37:16.415Z,7.32
2022-10-02T09:38:48.506Z,6.82
2022-10-02T09:40:30.577Z,7.63
2022-10-02T09:42:26.490Z,7.43
2022-10-02T09:44:38.954Z,6.43
2022-10-02T09:46:31.645Z,7.03
2022-10-02T09:48:13.229Z,7.30
2022-10-02T09:50:03.464Z,6.28
2022-10-02T09:51:59.015Z,6.38
2022-10-02T09:53:36.308Z,6.70
2022-10-02T09:55:22.997Z,7.38
2022-10-02T09:56:55.526Z,7.25
2022-10-02T09:58:56.572Z,6.40
2022-10-02T10:00:28.537Z,5.93
2022-10-02T10:02:13.211Z,6.90
2022-10-02T10:04:03.486Z,5.82
2022-10-02T10:06:04.422Z,5.85
2022-10-02T10:07:49.199Z,6.95
2022-10-02T10:09:47.569Z,6.57
2022-10-02T10:11:48.886Z,5.53
2022-10-02T10:13:34.579Z,6.28
2022-10-02T10:15:23.190Z,6.00
2022-10-02T10:17:05.988Z,5.20
2022-10-02T10:18:56.888Z,5.43
2022-10-02T10:20:53.247Z,4.82
2022-10-02T10:22:42.839Z,5.35
2022-10-02T10:24:51.269Z,4.82
2022-10-02T10:26:34.157Z,5.40
2022-10-02T10:29:02.447Z,4.90
2022-10-02T10:31:02.374Z,4.65
2022-10-02T10:33:11.696Z,4.75
2022-10-02T10:34:46.417Z,4.75
2022-10-02T10:36:50.837Z,5.65
2022-10-02T10:38:40.800Z,5.88
2022-10-02T10:40:38.722Z,5.05
2022-10-02T10:42:37.699Z,4.80
2022-10-02T10:44:31.942Z,5.20
2022-10-02T10:46:08.901Z,4.68
2022-10-02T10:48:00.025Z,4.32
2022-10-02T10:49:47.874Z,4.28
2022-10-02T10:51:30.696Z,4.35
2022-10-02T10:53:17.669Z,4.50
2022-10-02T10:55:01.425Z,5.03
2022-10-02T10:56:41.140Z,6.68
2022-10-02T10:58:21.515Z,4.93
2022-10-02T10:59:56.114Z,4.20
2022-10-02T11:01:29.403Z,5.40
2022-10-02T11:03:04.839Z,4.88
2022-10-02T11:04:55.722Z,6.10
2022-10-02T11:06:36.674Z,4.90
2022-10-02T11:08:24.849Z,4.88
2022-10-02T11:10:13.923Z,4.13
2022-10-02T11:11:45.900Z,5.50
2022-10-02T11:13:20.917Z,6.07
2022-10-02T11:15:01.820Z,5.95
2022-10-02T11:16:47.523Z,5.15
2022-10-02T11:18:28.931Z,4.70
2022-10-02T11:20:33.569Z,5.85
2022-10-02T11:22:14.946Z,5.68
2022-10-02T11:23:53.640Z,7.00
2022-10-02T11:25:34.642Z,6.55
2022-10-02T11:27:09.058Z,5.18
2022-10-02T11:28:47.993Z,5.32
2022-10-02T11:30:26.162Z,6.53
2022-10-02T11:32:05.679Z,6.30
2022-10-02T11:33:41.476Z,5.82
2022-10-02T11:35:23.595Z,5.70
2022-10-02T11:37:14.145Z,5.95
2022-10-02T11:39:04.939Z,4.70
2022-10-02T11:40:36.743Z,4.70
2022-10-02T11:42:27.248Z,4.55
2022-10-02T11:44:11.411Z,5.00
2022-10-02T11:45:53.221Z,4.78
2022-10-02T11:47:49.496Z,4.05
2022-10-02T11:49:39.933Z,4.50
2022-10-02T11:51:19.411Z,4.63
2022-10-02T11:52:51.351Z,4.18
2022-10-02T11:54:45.049Z,4.82
2022-10-02T11:56:35.785Z,3.97
2022-10-02T11:58:07.545Z,3.05
2022-10-02T11:59:54.073Z,3.60
2022-10-02T12:01:35.796Z,3.90
2022-10-02T12:03:32.206Z,4.03
2022-10-02T12:05:22.673Z,3.25
2022-10-02T12:07:07.393Z,3.92
2022-10-02T12:08:41.469Z,3.30
2022-10-02T12:10:28.576Z,3.38
2022-10-02T12:12:15.457Z,3.90
2022-10-02T12:13:54.908Z,5.00
2022-10-02T12:15:30.981Z,3.55
2022-10-02T12:17:12.047Z,4.07
2022-10-02T12:18:46.492Z,3.42
2022-10-02T12:20:42.122Z,3.67
2022-10-02T12:22:48.000Z,3.17
2022-10-02T12:25:01.941Z,4.00
2022-10-02T12:28:06.784Z,2.72
2022-10-02T12:29:19.640Z,2.53
2022-10-02T12:31:04.039Z,3.00
2022-10-02T12:32:43.994Z,2.35
2022-10-02T12:34:37.661Z,2.55
2022-10-02T12:36:12.331Z,2.63
2022-10-02T12:38:19.719Z,2.40
2022-10-02T12:39:54.946Z,3.13
2022-10-02T12:41:46.404Z,2.20
2022-10-02T12:43:21.852Z,3.45
2022-10-02T12:45:16.656Z,2.03
2022-10-02T12:46:59.872Z,2.85
2022-10-02T12:49:00.503Z,2.40
2022-10-02T12:50:41.667Z,3.08
2022-10-02T12:52:36.166Z,2.85
2022-10-02T12:54:18.293Z,3.10
2022-10-02T12:56:10.688Z,3.13
2022-10-02T12:58:01.168Z,3.17
2022-10-02T13:00:13.271Z,2.95
2022-10-02T13:02:18.888Z,3.35
2022-10-02T13:04:09.505Z,3.15
2022-10-02T13:05:53.348Z,3.05
2022-10-02T13:07:26.559Z,3.65
2022-10-02T13:09:03.411Z,3.20
2022-10-02T13:10:41.348Z,3.20
2022-10-02T13:12:46.936Z,2.95
2022-10-02T13:14:35.641Z,4.53
2022-10-02T13:16:20.161Z,4.05
2022-10-02T13:18:35.869Z,3.05
2022-10-02T13:20:28.672Z,3.83
2022-10-02T13:22:14.952Z,4.63
2022-10-02T13:24:25.611Z,3.25
2022-10-02T13:26:38.729Z,3.28
2022-10-02T13:29:18.288Z,3.63
2022-10-02T13:30:55.269Z,3.00
2022-10-02T13:32:38.825Z,2.70
2022-10-02T13:34:21.371Z,2.67
2022-10-02T13:36:04.769Z,2.50
2022-10-02T13:37:59.419Z,3.08
2022-10-02T13:39:31.248Z,3.80
2022-10-02T13:41:23.278Z,3.93
2022-10-02T13:43:09.391Z,2.70
2022-10-02T13:45:00.693Z,2.88
2022-10-02T13:46:53.888Z,2.67
2022-10-02T13:48:38.179Z,2.95
2022-10-02T13:50:45.447Z,2.65
2022-10-02T13:52:42.700Z,3.15
2022-10-02T13:54:14.765Z,3.00
2022-10-02T13:55:54.369Z,3.22
2022-10-02T13:57:37.314Z,2.78
2022-10-02T13:59:14.090Z,3.00
2022-10-02T14:00:48.629Z,2.40
2022-10-02T14:02:30.567Z,2.88
2022-10-02T14:04:37.797Z,2.90
2022-10-02T14:06:23.289Z,1.85
2022-10-02T14:08:07.086Z,3.08
2022-10-02T14:09:47.753Z,2.70
2022-10-02T14:11:30.050Z,2.35
2022-10-02T14:13:11.776Z,2.45
2022-10-02T14:14:52.144Z,2.70
2022-10-02T14:16:31.085Z,3.03
2022-10-02T14:18:35.624Z,2.88
2022-10-02T14:20:30.123Z,3.00
2022-10-02T14:22:11.297Z,2.80
2022-10-02T14:24:01.013Z,2.85
2022-10-02T14:25:35.456Z,2.72
2022-10-02T14:27:14.962Z,2.90
2022-10-02T14:29:08.745Z,3.28
2022-10-02T14:31:00.604Z,2.15
2022-10-02T14:32:32.675Z,3.60
2022-10-02T14:34:04.573Z,2.92
2022-10-02T14:35:42.625Z,2.70
2022-10-02T14:37:26.235Z,3.25
2022-10-02T14:39:16.892Z,1.77
2022-10-02T14:40:48.642Z,2.33
2022-10-02T14:42:33.005Z,2.30
2022-10-02T14:44:39.664Z,1.98
2022-10-02T14:46:21.106Z,1.90
2022-10-02T14:47:59.693Z,2.05
2022-10-02T14:49:46.107Z,1.85
2022-10-02T14:51:39.421Z,2.03
2022-10-02T14:53:14.377Z,2.08
2022-10-02T14:55:02.116Z,1.73
2022-10-02T14:56:46.086Z,2.20
2022-10-02T14:58:17.992Z,1.60
2022-10-02T15:00:03.549Z,2.43
2022-10-02T15:01:46.192Z,1.88
2022-10-02T15:03:17.962Z,2.15
2022-10-02T15:05:06.789Z,2.23
2022-10-02T15:06:56.586Z,1.75
2022-10-02T15:08:41.858Z,1.73
2022-10-02T15:10:22.391Z,1.70
2022-10-02T15:11:56.837Z,1.98
2022-10-02T15:13:37.891Z,1.70
2022-10-02T15:15:13.002Z,1.50
2022-10-02T15:17:05.671Z,2.30
2022-10-02T15:18:38.890Z,1.60
2022-10-02T15:20:21.429Z,2.08
2022-10-02T15:22:02.215Z,1.52
2022-10-02T15:23:34.763Z,2.45
2022-10-02T15:25:18.081Z,2.25
2022-10-02T15:26:50.861Z,1.85
2022-10-02T15:28:39.644Z,1.85
2022-10-02T15:30:23.974Z,1.63
2022-10-02T15:32:15.137Z,1.60
2022-10-02T15:33:55.939Z,1.80
2022-10-02T15:35:47.510Z,1.48
2022-10-02T15:37:22.857Z,1.50
2022-10-02T15:39:19.331Z,1.58
2022-10-02T15:40:54.304Z,1.40
2022-10-02T15:42:41.053Z,2.10
2022-10-02T15:44:15.460Z,1.58
2022-10-02T15:45:56.099Z,1.88
2022-10-02T15:47:49.786Z,1.48
2022-10-02T15:51:34.851Z,1.88
2022-10-02T15:53:52.319Z,1.40
2022-10-02T15:55:35.492Z,1.05
2022-10-02T15:57:26.164Z,2.20
2022-10-02T15:59:05.671Z,1.63
2022-10-02T16:01:23.336Z,1.15
2022-10-02T16:03:26.962Z,1.13
2022-10-02T16:05:18.053Z,1.10
2022-10-02T16:07:08.224Z,1.58
2022-10-02T16:08:40.127Z,1.40
2022-10-02T16:10:20.664Z,1.20
2022-10-02T16:12:02.873Z,1.77
2022-10-02T16:13:41.323Z,1.20
2022-10-02T16:15:26.043Z,1.50
2022-10-02T16:17:09.516Z,1.73
2022-10-02T16:18:50.704Z,2.03
2022-10-02T16:20:25.244Z,1.95
2022-10-02T16:22:15.606Z,1.33
2022-10-02T16:23:49.637Z,1.48
2022-10-02T16:25:42.567Z,2.07
2022-10-02T16:27:24.808Z,1.08
2022-10-02T16:28:56.800Z,1.60
2022-10-02T16:30:31.192Z,1.60
2022-10-02T16:32:13.042Z,1.77
2022-10-02T16:33:52.826Z,1.58
2022-10-02T16:35:28.674Z,1.65
2022-10-02T16:37:13.658Z,1.52
2022-10-02T16:39:02.263Z,1.75
2022-10-02T16:40:44.752Z,1.33
2022-10-02T16:42:34.759Z,1.42
2022-10-02T16:44:16.237Z,1.38
2022-10-02T16:46:06.310Z,1.45
2022-10-02T16:47:53.376Z,1.50
2022-10-02T16:49:50.273Z,1.38
2022-10-02T16:51:39.461Z,1.50
2022-10-02T16:53:24.879Z,1.52
2022-10-02T16:55:08.901Z,1.55
2022-10-02T16:56:44.873Z,1.48
2022-10-02T16:58:29.987Z,2.00
2022-10-02T17:00:07.888Z,1.33
2022-10-02T17:02:20.090Z,2.22
2022-10-02T17:03:59.564Z,1.27
2022-10-02T17:05:37.060Z,1.80
2022-10-02T17:07:31.632Z,1.90
2022-10-02T17:09:23.521Z,1.85
2022-10-02T17:11:14.164Z,2.42
2022-10-02T17:12:49.858Z,2.10
2022-10-02T17:14:43.263Z,1.65
2022-10-02T17:16:21.527Z,2.08
2022-10-02T17:18:14.716Z,1.88
2022-10-02T17:19:53.962Z,1.77
2022-10-02T17:21:37.171Z,2.05
2022-10-02T17:23:11.681Z,2.20
2022-10-02T17:24:49.646Z,3.00
2022-10-02T17:26:28.560Z,2.38
2022-10-02T17:28:03.257Z,1.70
2022-10-02T17:29:55.480Z,2.15
2022-10-02T17:31:42.184Z,2.17
2022-10-02T17:33:17.495Z,3.50
2022-10-02T17:34:56.999Z,2.35
2022-10-02T17:36:28.924Z,2.10
2022-10-02T17:38:22.061Z,1.83
2022-10-02T17:40:06.609Z,2.17
2022-10-02T17:41:47.274Z,2.17
2022-10-02T17:43:27.238Z,1.77
2022-10-02T17:45:17.565Z,2.40
2022-10-02T17:46:52.012Z,3.17
2022-10-02T17:48:26.919Z,3.10
2022-10-02T17:50:08.624Z,2.42
2022-10-02T17:51:59.001Z,1.92
2022-10-02T17:53:52.693Z,2.58
2022-10-02T17:57:26.895Z,2.53
2022-10-02T17:59:17.580Z,2.00
2022-10-02T18:02:36.436Z,2.42
2022-10-02T18:04:12.095Z,2.15
2022-10-02T18:05:53.705Z,2.72
2022-10-02T18:07:36.751Z,1.90
2022-10-02T18:09:33.288Z,2.00
2022-10-02T18:11:29.938Z,2.97
2022-10-02T18:13:20.726Z,2.47
2022-10-02T18:14:58.314Z,2.53
2022-10-02T18:16:55.780Z,2.35
2022-10-02T18:18:27.592Z,1.83
2022-10-02T18:20:14.221Z,1.70
2022-10-02T18:21:49.091Z,2.42
2022-10-02T18:23:24.076Z,2.30
2022-10-02T18:25:00.537Z,2.10
2022-10-02T18:26:52.510Z,2.17
2022-10-02T18:28:36.421Z,2.20
2022-10-02T18:30:21.818Z,2.78
2022-10-02T18:32:02.141Z,2.30
2022-10-02T18:33:57.014Z,2.22
2022-10-02T18:35:51.700Z,3.30
2022-10-02T18:37:23.691Z,2.15
2022-10-02T18:39:00.602Z,2.43
2022-10-02T18:40:56.159Z,2.58
2022-10-02T18:42:46.470Z,2.58
2022-10-02T18:44:42.781Z,3.40
2022-10-02T18:46:36.475Z,2.40
2022-10-02T18:49:50.603Z,2.35
2022-10-02T18:51:42.498Z,2.55
2022-10-02T18:53:23.273Z,2.90
2022-10-02T18:55:09.696Z,2.63
2022-10-02T18:56:46.461Z,3.13
2022-10-02T18:58:31.851Z,2.90
2022-10-02T19:00:18.501Z,3.33
2022-10-02T19:01:50.608Z,2.85
2022-10-02T19:03:43.730Z,2.90
2022-10-02T19:05:26.458Z,3.15
2022-10-02T19:07:06.366Z,2.80
2022-10-02T19:08:56.853Z,2.63
2022-10-02T19:10:29.808Z,2.83
2022-10-02T19:12:18.683Z,2.47
2022-10-02T19:13:52.750Z,2.50
2022-10-02T19:15:29.616Z,2.20
2022-10-02T19:17:06.176Z,2.65
2022-10-02T19:18:38.761Z,2.97
2022-10-02T19:20:38.138Z,2.40
2022-10-02T19:22:30.642Z,2.28
2022-10-02T19:24:10.381Z,2.50
2022-10-02T19:26:07.963Z,3.38
2022-10-02T19:27:41.677Z,2.70
2022-10-02T19:29:25.615Z,3.33
2022-10-02T19:31:11.546Z,3.38
2022-10-02T19:32:50.945Z,2.53
2022-10-02T19:34:29.818Z,3.00
2022-10-02T19:36:11.237Z,2.60
2022-10-02T19:37:49.849Z,2.70
2022-10-02T19:39:31.791Z,2.80
2022-10-02T19:41:13.737Z,2.55
2022-10-02T19:42:55.010Z,3.67
2022-10-02T19:44:32.111Z,3.67
2022-10-02T19:46:08.692Z,3.17
2022-10-02T19:47:49.508Z,3.50
2022-10-02T19:49:30.017Z,3.42
2022-10-02T19:51:05.963Z,3.42
2022-10-02T19:52:48.082Z,3.15
2022-10-02T19:54:24.318Z,4.05
2022-10-02T19:55:59.322Z,3.70
2022-10-02T19:57:38.494Z,3.60
2022-10-02T19:59:26.971Z,2.67
2022-10-02T20:01:00.608Z,3.97
2022-10-02T20:02:42.198Z,4.10
2022-10-02T20:04:17.544Z,3.53
2022-10-02T20:06:02.973Z,3.80
2022-10-02T20:07:37.119Z,3.08
2022-10-02T20:09:14.633Z,3.00
2022-10-02T20:10:50.583Z,4.30
2022-10-02T20:12:28.755Z,3.72
2022-10-02T20:14:10.726Z,4.18
2022-10-02T20:16:14.889Z,3.42
2022-10-02T20:17:56.556Z,3.38
2022-10-02T20:19:34.146Z,3.50
2022-10-02T20:21:09.426Z,3.08
2022-10-02T20:22:41.297Z,2.97
2022-10-02T20:24:21.467Z,2.90
2022-10-02T20:26:02.127Z,3.40
2022-10-02T20:27:46.941Z,3.78
2022-10-02T20:29:24.137Z,4.38
2022-10-02T20:31:16.821Z,4.05
2022-10-02T20:32:48.767Z,2.72
2022-10-02T20:34:35.566Z,5.50
2022-10-02T20:36:13.095Z,3.13
2022-10-02T20:37:47.688Z,4.95
2022-10-02T20:39:21.718Z,3.85
2022-10-02T20:40:57.526Z,4.38
2022-10-02T20:42:40.842Z,3.42
2022-10-02T20:44:34.007Z,3.92
2022-10-02T20:46:12.274Z,3.17
2022-10-02T20:48:11.651Z,3.40
2022-10-02T20:50:06.286Z,3.83
2022-10-02T20:51:45.012Z,3.63
2022-10-02T20:53:29.899Z,3.13
2022-10-02T20:55:25.464Z,4.13
2022-10-02T20:57:33.552Z,4.47
2022-10-02T20:59:22.426Z,2.95
2022-10-02T21:00:59.593Z,3.05
2022-10-02T21:02:47.756Z,3.50
2022-10-02T21:04:22.576Z,3.45
2022-10-02T21:06:15.045Z,2.92
2022-10-02T21:08:03.862Z,3.28
2022-10-02T21:09:59.327Z,4.00
2022-10-02T21:11:36.495Z,3.05
2022-10-02T21:13:24.414Z,3.75
2022-10-02T21:15:12.720Z,3.03
